sensor_id;sensor_type;location;lat;lon;timestamp;P1;durP1;ratioP1;P2;durP2;ratioP2
53056;SDS011;38940;50.096;4.012;2023-07-20T00:00:39;4.85;;;1.50;;
53056;SDS011;38940;50.096;4.012;2023-07-20T00:03:11;8.63;;;1.92;;
53056;SDS011;38940;50.096;4.012;2023-07-20T00:05:42;7.10;;;1.75;;
53056;SDS011;38940;50.096;4.012;2023-07-20T00:08:08;6.30;;;1.60;;
53056;SDS011;38940;50.096;4.012;2023-07-20T00:10:34;5.07;;;1.40;;
53056;SDS011;38940;50.096;4.012;2023-07-20T00:13:00;5.53;;;1.60;;
53056;SDS011;38940;50.096;4.012;2023-07-20T00:15:26;6.43;;;1.63;;
53056;SDS011;38940;50.096;4.012;2023-07-20T00:17:52;5.82;;;1.70;;
53056;SDS011;38940;50.096;4.012;2023-07-20T00:20:18;8.38;;;1.70;;
53056;SDS011;38940;50.096;4.012;2023-07-20T00:22:44;7.80;;;1.60;;
53056;SDS011;38940;50.096;4.012;2023-07-20T00:25:10;7.30;;;1.80;;
53056;SDS011;38940;50.096;4.012;2023-07-20T00:27:36;5.90;;;1.63;;
53056;SDS011;38940;50.096;4.012;2023-07-20T00:30:03;5.63;;;1.65;;
53056;SDS011;38940;50.096;4.012;2023-07-20T00:32:29;4.17;;;1.60;;
53056;SDS011;38940;50.096;4.012;2023-07-20T00:34:55;8.68;;;1.70;;
53056;SDS011;38940;50.096;4.012;2023-07-20T00:37:21;5.35;;;1.52;;
53056;SDS011;38940;50.096;4.012;2023-07-20T00:39:47;5.97;;;1.60;;
53056;SDS011;38940;50.096;4.012;2023-07-20T00:42:13;7.22;;;1.75;;
53056;SDS011;38940;50.096;4.012;2023-07-20T00:44:39;7.50;;;1.85;;
53056;SDS011;38940;50.096;4.012;2023-07-20T00:47:05;4.72;;;1.70;;
53056;SDS011;38940;50.096;4.012;2023-07-20T00:49:32;4.82;;;1.50;;
53056;SDS011;38940;50.096;4.012;2023-07-20T00:51:59;8.85;;;1.50;;
53056;SDS011;38940;50.096;4.012;2023-07-20T00:54:25;5.13;;;1.55;;
53056;SDS011;38940;50.096;4.012;2023-07-20T00:56:52;5.17;;;1.57;;
53056;SDS011;38940;50.096;4.012;2023-07-20T00:59:19;4.95;;;1.65;;
53056;SDS011;38940;50.096;4.012;2023-07-20T01:01:45;5.90;;;1.90;;
53056;SDS011;38940;50.096;4.012;2023-07-20T01:04:11;7.65;;;1.70;;
53056;SDS011;38940;50.096;4.012;2023-07-20T01:06:53;5.93;;;1.60;;
53056;SDS011;38940;50.096;4.012;2023-07-20T01:09:19;5.03;;;1.80;;
53056;SDS011;38940;50.096;4.012;2023-07-20T01:12:00;6.80;;;1.90;;
53056;SDS011;38940;50.096;4.012;2023-07-20T01:14:28;6.30;;;1.70;;
53056;SDS011;38940;50.096;4.012;2023-07-20T01:16:55;6.78;;;1.88;;
53056;SDS011;38940;50.096;4.012;2023-07-20T01:19:21;7.38;;;1.67;;
53056;SDS011;38940;50.096;4.012;2023-07-20T01:21:55;6.73;;;1.80;;
53056;SDS011;38940;50.096;4.012;2023-07-20T01:32:08;6.05;;;1.92;;
53056;SDS011;38940;50.096;4.012;2023-07-20T01:34:35;3.95;;;1.58;;
53056;SDS011;38940;50.096;4.012;2023-07-20T01:37:02;7.68;;;1.70;;
53056;SDS011;38940;50.096;4.012;2023-07-20T01:39:28;4.50;;;1.90;;
53056;SDS011;38940;50.096;4.012;2023-07-20T01:41:54;11.50;;;2.30;;
53056;SDS011;38940;50.096;4.012;2023-07-20T01:44:20;11.35;;;2.47;;
53056;SDS011;38940;50.096;4.012;2023-07-20T01:46:46;8.13;;;2.20;;
53056;SDS011;38940;50.096;4.012;2023-07-20T01:49:12;10.75;;;2.47;;
53056;SDS011;38940;50.096;4.012;2023-07-20T01:51:38;12.90;;;2.70;;
53056;SDS011;38940;50.096;4.012;2023-07-20T01:54:05;12.10;;;2.60;;
53056;SDS011;38940;50.096;4.012;2023-07-20T01:56:31;9.60;;;2.25;;
53056;SDS011;38940;50.096;4.012;2023-07-20T01:58:57;9.32;;;2.42;;
53056;SDS011;38940;50.096;4.012;2023-07-20T02:01:23;11.80;;;2.53;;
53056;SDS011;38940;50.096;4.012;2023-07-20T02:03:49;11.18;;;2.47;;
53056;SDS011;38940;50.096;4.012;2023-07-20T02:06:15;11.33;;;3.07;;
53056;SDS011;38940;50.096;4.012;2023-07-20T02:08:41;13.98;;;3.10;;
53056;SDS011;38940;50.096;4.012;2023-07-20T02:11:07;14.90;;;3.03;;
53056;SDS011;38940;50.096;4.012;2023-07-20T02:13:35;15.25;;;3.42;;
53056;SDS011;38940;50.096;4.012;2023-07-20T02:16:01;15.90;;;3.45;;
53056;SDS011;38940;50.096;4.012;2023-07-20T02:18:27;12.90;;;2.78;;
53056;SDS011;38940;50.096;4.012;2023-07-20T02:20:53;12.30;;;3.10;;
53056;SDS011;38940;50.096;4.012;2023-07-20T02:23:19;10.73;;;2.88;;
53056;SDS011;38940;50.096;4.012;2023-07-20T02:25:45;11.50;;;2.95;;
53056;SDS011;38940;50.096;4.012;2023-07-20T02:28:14;14.27;;;3.08;;
53056;SDS011;38940;50.096;4.012;2023-07-20T02:30:40;11.77;;;2.63;;
53056;SDS011;38940;50.096;4.012;2023-07-20T02:33:06;10.60;;;2.67;;
53056;SDS011;38940;50.096;4.012;2023-07-20T02:35:32;16.38;;;3.08;;
53056;SDS011;38940;50.096;4.012;2023-07-20T02:37:58;15.63;;;3.25;;
53056;SDS011;38940;50.096;4.012;2023-07-20T02:40:24;15.48;;;3.25;;
53056;SDS011;38940;50.096;4.012;2023-07-20T02:42:50;9.15;;;2.58;;
53056;SDS011;38940;50.096;4.012;2023-07-20T02:45:16;10.50;;;2.90;;
53056;SDS011;38940;50.096;4.012;2023-07-20T02:47:42;13.50;;;3.13;;
53056;SDS011;38940;50.096;4.012;2023-07-20T02:50:08;8.60;;;2.90;;
53056;SDS011;38940;50.096;4.012;2023-07-20T02:52:34;9.23;;;2.95;;
53056;SDS011;38940;50.096;4.012;2023-07-20T02:55:00;11.70;;;2.97;;
53056;SDS011;38940;50.096;4.012;2023-07-20T02:57:26;11.23;;;2.92;;
53056;SDS011;38940;50.096;4.012;2023-07-20T02:59:52;8.43;;;2.97;;
53056;SDS011;38940;50.096;4.012;2023-07-20T03:02:19;11.65;;;2.63;;
53056;SDS011;38940;50.096;4.012;2023-07-20T03:04:45;11.57;;;3.10;;
53056;SDS011;38940;50.096;4.012;2023-07-20T03:07:11;13.20;;;2.80;;
53056;SDS011;38940;50.096;4.012;2023-07-20T03:09:37;16.92;;;3.08;;
53056;SDS011;38940;50.096;4.012;2023-07-20T03:12:04;12.20;;;3.10;;
53056;SDS011;38940;50.096;4.012;2023-07-20T03:14:30;13.37;;;2.87;;
53056;SDS011;38940;50.096;4.012;2023-07-20T03:16:56;8.98;;;3.00;;
53056;SDS011;38940;50.096;4.012;2023-07-20T03:19:22;11.70;;;2.90;;
53056;SDS011;38940;50.096;4.012;2023-07-20T03:21:48;13.40;;;2.95;;
53056;SDS011;38940;50.096;4.012;2023-07-20T03:24:16;9.90;;;3.05;;
53056;SDS011;38940;50.096;4.012;2023-07-20T03:26:42;12.07;;;2.97;;
53056;SDS011;38940;50.096;4.012;2023-07-20T03:29:08;14.17;;;3.23;;
53056;SDS011;38940;50.096;4.012;2023-07-20T03:31:34;13.43;;;3.08;;
53056;SDS011;38940;50.096;4.012;2023-07-20T03:34:00;12.30;;;3.03;;
53056;SDS011;38940;50.096;4.012;2023-07-20T03:36:26;14.20;;;3.15;;
53056;SDS011;38940;50.096;4.012;2023-07-20T03:38:52;16.70;;;3.42;;
53056;SDS011;38940;50.096;4.012;2023-07-20T03:41:18;12.68;;;3.95;;
53056;SDS011;38940;50.096;4.012;2023-07-20T03:43:45;15.27;;;3.58;;
53056;SDS011;38940;50.096;4.012;2023-07-20T03:46:11;15.85;;;4.25;;
53056;SDS011;38940;50.096;4.012;2023-07-20T03:48:37;20.45;;;4.40;;
53056;SDS011;38940;50.096;4.012;2023-07-20T03:51:03;12.85;;;3.83;;
53056;SDS011;38940;50.096;4.012;2023-07-20T03:53:29;16.67;;;4.53;;
53056;SDS011;38940;50.096;4.012;2023-07-20T03:55:55;16.75;;;5.03;;
53056;SDS011;38940;50.096;4.012;2023-07-20T03:58:21;17.02;;;4.93;;
53056;SDS011;38940;50.096;4.012;2023-07-20T04:00:48;16.67;;;4.63;;
53056;SDS011;38940;50.096;4.012;2023-07-20T04:03:17;16.05;;;4.53;;
53056;SDS011;38940;50.096;4.012;2023-07-20T04:05:44;16.77;;;4.30;;
53056;SDS011;38940;50.096;4.012;2023-07-20T04:08:10;16.45;;;4.15;;
53056;SDS011;38940;50.096;4.012;2023-07-20T04:10:37;20.00;;;4.45;;
53056;SDS011;38940;50.096;4.012;2023-07-20T04:13:03;18.33;;;3.97;;
53056;SDS011;38940;50.096;4.012;2023-07-20T04:15:30;15.68;;;3.75;;
53056;SDS011;38940;50.096;4.012;2023-07-20T04:17:56;17.17;;;4.50;;
53056;SDS011;38940;50.096;4.012;2023-07-20T04:20:23;16.10;;;3.90;;
53056;SDS011;38940;50.096;4.012;2023-07-20T04:22:49;14.43;;;4.18;;
53056;SDS011;38940;50.096;4.012;2023-07-20T04:25:16;18.23;;;4.77;;
53056;SDS011;38940;50.096;4.012;2023-07-20T04:27:42;19.08;;;4.40;;
53056;SDS011;38940;50.096;4.012;2023-07-20T04:30:08;19.40;;;4.93;;
53056;SDS011;38940;50.096;4.012;2023-07-20T04:32:34;21.75;;;5.35;;
53056;SDS011;38940;50.096;4.012;2023-07-20T04:35:00;21.63;;;5.30;;
53056;SDS011;38940;50.096;4.012;2023-07-20T04:37:26;17.88;;;5.30;;
53056;SDS011;38940;50.096;4.012;2023-07-20T04:39:52;22.45;;;5.05;;
53056;SDS011;38940;50.096;4.012;2023-07-20T04:42:18;21.15;;;5.10;;
53056;SDS011;38940;50.096;4.012;2023-07-20T04:44:45;19.85;;;5.40;;
53056;SDS011;38940;50.096;4.012;2023-07-20T04:47:11;26.30;;;5.30;;
53056;SDS011;38940;50.096;4.012;2023-07-20T04:49:37;22.50;;;5.45;;
53056;SDS011;38940;50.096;4.012;2023-07-20T04:52:03;19.52;;;5.22;;
53056;SDS011;38940;50.096;4.012;2023-07-20T04:54:29;16.58;;;4.78;;
53056;SDS011;38940;50.096;4.012;2023-07-20T04:56:55;16.52;;;5.53;;
53056;SDS011;38940;50.096;4.012;2023-07-20T04:59:21;16.48;;;5.78;;
53056;SDS011;38940;50.096;4.012;2023-07-20T05:01:47;21.13;;;6.60;;
53056;SDS011;38940;50.096;4.012;2023-07-20T05:04:13;18.42;;;6.22;;
53056;SDS011;38940;50.096;4.012;2023-07-20T05:06:39;18.88;;;5.95;;
53056;SDS011;38940;50.096;4.012;2023-07-20T05:09:05;20.42;;;7.10;;
53056;SDS011;38940;50.096;4.012;2023-07-20T05:11:32;27.98;;;7.85;;
53056;SDS011;38940;50.096;4.012;2023-07-20T05:13:59;26.83;;;7.20;;
53056;SDS011;38940;50.096;4.012;2023-07-20T05:16:25;23.88;;;7.03;;
53056;SDS011;38940;50.096;4.012;2023-07-20T05:18:51;20.43;;;6.53;;
53056;SDS011;38940;50.096;4.012;2023-07-20T05:21:17;21.88;;;6.88;;
53056;SDS011;38940;50.096;4.012;2023-07-20T05:23:43;22.63;;;6.70;;
53056;SDS011;38940;50.096;4.012;2023-07-20T05:26:10;20.70;;;6.77;;
53056;SDS011;38940;50.096;4.012;2023-07-20T05:28:36;18.88;;;5.65;;
53056;SDS011;38940;50.096;4.012;2023-07-20T05:31:02;14.88;;;5.13;;
53056;SDS011;38940;50.096;4.012;2023-07-20T05:33:28;21.30;;;5.43;;
53056;SDS011;38940;50.096;4.012;2023-07-20T05:35:54;20.83;;;5.72;;
53056;SDS011;38940;50.096;4.012;2023-07-20T05:38:20;18.73;;;6.05;;
53056;SDS011;38940;50.096;4.012;2023-07-20T05:40:46;18.45;;;6.28;;
53056;SDS011;38940;50.096;4.012;2023-07-20T05:43:12;17.93;;;6.03;;
53056;SDS011;38940;50.096;4.012;2023-07-20T05:45:42;25.77;;;6.65;;
53056;SDS011;38940;50.096;4.012;2023-07-20T05:48:09;15.68;;;6.15;;
53056;SDS011;38940;50.096;4.012;2023-07-20T05:50:36;17.65;;;6.50;;
53056;SDS011;38940;50.096;4.012;2023-07-20T05:53:02;20.93;;;6.43;;
53056;SDS011;38940;50.096;4.012;2023-07-20T05:55:28;19.02;;;6.47;;
53056;SDS011;38940;50.096;4.012;2023-07-20T05:57:55;18.13;;;6.22;;
53056;SDS011;38940;50.096;4.012;2023-07-20T06:00:21;15.18;;;6.18;;
53056;SDS011;38940;50.096;4.012;2023-07-20T06:02:51;14.50;;;5.75;;
53056;SDS011;38940;50.096;4.012;2023-07-20T06:05:18;17.20;;;5.97;;
53056;SDS011;38940;50.096;4.012;2023-07-20T06:07:45;11.85;;;5.60;;
53056;SDS011;38940;50.096;4.012;2023-07-20T06:10:11;14.35;;;5.03;;
53056;SDS011;38940;50.096;4.012;2023-07-20T06:12:37;10.93;;;5.15;;
53056;SDS011;38940;50.096;4.012;2023-07-20T06:15:03;12.27;;;5.50;;
53056;SDS011;38940;50.096;4.012;2023-07-20T06:17:29;12.80;;;5.20;;
53056;SDS011;38940;50.096;4.012;2023-07-20T06:19:56;13.07;;;5.22;;
53056;SDS011;38940;50.096;4.012;2023-07-20T06:22:21;13.95;;;4.90;;
53056;SDS011;38940;50.096;4.012;2023-07-20T06:24:47;13.45;;;5.32;;
53056;SDS011;38940;50.096;4.012;2023-07-20T06:27:13;15.80;;;5.07;;
53056;SDS011;38940;50.096;4.012;2023-07-20T06:29:39;11.80;;;5.25;;
53056;SDS011;38940;50.096;4.012;2023-07-20T06:32:06;11.17;;;5.40;;
53056;SDS011;38940;50.096;4.012;2023-07-20T06:34:32;13.20;;;5.82;;
53056;SDS011;38940;50.096;4.012;2023-07-20T06:37:02;11.20;;;5.82;;
53056;SDS011;38940;50.096;4.012;2023-07-20T06:39:29;14.70;;;5.82;;
53056;SDS011;38940;50.096;4.012;2023-07-20T06:41:55;14.15;;;5.55;;
53056;SDS011;38940;50.096;4.012;2023-07-20T06:44:21;17.57;;;5.80;;
53056;SDS011;38940;50.096;4.012;2023-07-20T06:46:47;12.07;;;5.40;;
53056;SDS011;38940;50.096;4.012;2023-07-20T06:49:23;12.65;;;5.40;;
53056;SDS011;38940;50.096;4.012;2023-07-20T06:51:50;12.80;;;5.57;;
53056;SDS011;38940;50.096;4.012;2023-07-20T06:54:16;14.57;;;5.60;;
53056;SDS011;38940;50.096;4.012;2023-07-20T06:56:42;12.40;;;5.30;;
53056;SDS011;38940;50.096;4.012;2023-07-20T06:59:08;13.90;;;5.40;;
53056;SDS011;38940;50.096;4.012;2023-07-20T07:01:33;11.70;;;4.88;;
53056;SDS011;38940;50.096;4.012;2023-07-20T07:03:59;11.60;;;4.57;;
53056;SDS011;38940;50.096;4.012;2023-07-20T07:06:25;9.73;;;4.22;;
53056;SDS011;38940;50.096;4.012;2023-07-20T07:08:52;11.48;;;4.40;;
53056;SDS011;38940;50.096;4.012;2023-07-20T07:11:18;9.40;;;5.00;;
53056;SDS011;38940;50.096;4.012;2023-07-20T07:13:44;9.07;;;4.30;;
53056;SDS011;38940;50.096;4.012;2023-07-20T07:16:13;9.73;;;4.00;;
53056;SDS011;38940;50.096;4.012;2023-07-20T07:18:43;8.73;;;3.73;;
53056;SDS011;38940;50.096;4.012;2023-07-20T07:21:09;8.37;;;3.60;;
53056;SDS011;38940;50.096;4.012;2023-07-20T07:23:35;13.48;;;4.32;;
53056;SDS011;38940;50.096;4.012;2023-07-20T07:26:01;10.98;;;4.00;;
53056;SDS011;38940;50.096;4.012;2023-07-20T07:28:28;7.47;;;3.85;;
53056;SDS011;38940;50.096;4.012;2023-07-20T07:30:54;10.40;;;4.13;;
53056;SDS011;38940;50.096;4.012;2023-07-20T07:33:22;10.13;;;3.47;;
53056;SDS011;38940;50.096;4.012;2023-07-20T07:35:49;7.53;;;3.42;;
53056;SDS011;38940;50.096;4.012;2023-07-20T07:38:16;5.97;;;3.45;;
53056;SDS011;38940;50.096;4.012;2023-07-20T07:40:43;8.48;;;3.70;;
53056;SDS011;38940;50.096;4.012;2023-07-20T07:43:09;7.53;;;3.30;;
53056;SDS011;38940;50.096;4.012;2023-07-20T07:45:35;10.43;;;4.23;;
53056;SDS011;38940;50.096;4.012;2023-07-20T07:48:02;10.23;;;3.70;;
53056;SDS011;38940;50.096;4.012;2023-07-20T07:50:29;9.90;;;4.28;;
53056;SDS011;38940;50.096;4.012;2023-07-20T07:52:55;9.32;;;4.25;;
53056;SDS011;38940;50.096;4.012;2023-07-20T07:55:21;9.67;;;4.20;;
53056;SDS011;38940;50.096;4.012;2023-07-20T07:57:47;8.75;;;4.22;;
53056;SDS011;38940;50.096;4.012;2023-07-20T08:00:13;9.70;;;3.72;;
53056;SDS011;38940;50.096;4.012;2023-07-20T08:02:42;7.88;;;3.30;;
53056;SDS011;38940;50.096;4.012;2023-07-20T08:05:08;8.82;;;4.05;;
53056;SDS011;38940;50.096;4.012;2023-07-20T08:07:35;9.38;;;3.90;;
53056;SDS011;38940;50.096;4.012;2023-07-20T08:10:01;8.25;;;3.53;;
53056;SDS011;38940;50.096;4.012;2023-07-20T08:12:27;11.18;;;4.13;;
53056;SDS011;38940;50.096;4.012;2023-07-20T08:14:53;12.13;;;4.30;;
53056;SDS011;38940;50.096;4.012;2023-07-20T08:17:19;11.73;;;3.90;;
53056;SDS011;38940;50.096;4.012;2023-07-20T08:19:45;9.32;;;3.97;;
53056;SDS011;38940;50.096;4.012;2023-07-20T08:22:11;8.03;;;3.67;;
53056;SDS011;38940;50.096;4.012;2023-07-20T08:24:41;11.75;;;3.10;;
53056;SDS011;38940;50.096;4.012;2023-07-20T08:27:07;8.90;;;2.90;;
53056;SDS011;38940;50.096;4.012;2023-07-20T08:29:33;9.65;;;3.17;;
53056;SDS011;38940;50.096;4.012;2023-07-20T08:31:59;14.00;;;4.25;;
53056;SDS011;38940;50.096;4.012;2023-07-20T08:34:25;14.88;;;5.63;;
53056;SDS011;38940;50.096;4.012;2023-07-20T08:36:51;15.40;;;4.85;;
53056;SDS011;38940;50.096;4.012;2023-07-20T08:39:17;13.80;;;5.15;;
53056;SDS011;38940;50.096;4.012;2023-07-20T08:41:43;6.93;;;3.00;;
53056;SDS011;38940;50.096;4.012;2023-07-20T08:44:10;9.10;;;3.00;;
53056;SDS011;38940;50.096;4.012;2023-07-20T08:46:37;7.93;;;2.78;;
53056;SDS011;38940;50.096;4.012;2023-07-20T08:49:04;5.85;;;2.92;;
53056;SDS011;38940;50.096;4.012;2023-07-20T08:51:30;9.93;;;3.63;;
53056;SDS011;38940;50.096;4.012;2023-07-20T08:53:56;8.30;;;3.50;;
53056;SDS011;38940;50.096;4.012;2023-07-20T08:56:23;8.93;;;3.28;;
53056;SDS011;38940;50.096;4.012;2023-07-20T08:58:51;11.20;;;3.13;;
53056;SDS011;38940;50.096;4.012;2023-07-20T09:01:17;9.70;;;3.03;;
53056;SDS011;38940;50.096;4.012;2023-07-20T09:03:44;8.38;;;2.67;;
53056;SDS011;38940;50.096;4.012;2023-07-20T09:06:11;8.50;;;3.20;;
53056;SDS011;38940;50.096;4.012;2023-07-20T09:08:38;6.43;;;2.63;;
53056;SDS011;38940;50.096;4.012;2023-07-20T09:11:03;10.52;;;2.80;;
53056;SDS011;38940;50.096;4.012;2023-07-20T09:13:30;8.73;;;2.80;;
53056;SDS011;38940;50.096;4.012;2023-07-20T09:15:57;8.60;;;2.90;;
53056;SDS011;38940;50.096;4.012;2023-07-20T09:18:27;9.37;;;3.20;;
53056;SDS011;38940;50.096;4.012;2023-07-20T09:21:03;5.68;;;3.00;;
53056;SDS011;38940;50.096;4.012;2023-07-20T09:23:33;9.90;;;3.03;;
53056;SDS011;38940;50.096;4.012;2023-07-20T09:26:00;8.40;;;2.95;;
53056;SDS011;38940;50.096;4.012;2023-07-20T09:28:26;6.82;;;2.72;;
53056;SDS011;38940;50.096;4.012;2023-07-20T09:30:54;6.97;;;2.80;;
53056;SDS011;38940;50.096;4.012;2023-07-20T09:33:24;6.67;;;3.10;;
53056;SDS011;38940;50.096;4.012;2023-07-20T09:35:50;8.13;;;3.07;;
53056;SDS011;38940;50.096;4.012;2023-07-20T09:38:16;8.52;;;2.80;;
53056;SDS011;38940;50.096;4.012;2023-07-20T09:40:42;10.35;;;3.30;;
53056;SDS011;38940;50.096;4.012;2023-07-20T09:43:08;10.23;;;3.10;;
53056;SDS011;38940;50.096;4.012;2023-07-20T09:45:35;7.75;;;2.90;;
53056;SDS011;38940;50.096;4.012;2023-07-20T09:48:04;10.25;;;3.00;;
53056;SDS011;38940;50.096;4.012;2023-07-20T09:50:31;9.93;;;3.05;;
53056;SDS011;38940;50.096;4.012;2023-07-20T09:52:57;8.10;;;2.65;;
53056;SDS011;38940;50.096;4.012;2023-07-20T09:55:25;8.88;;;3.03;;
53056;SDS011;38940;50.096;4.012;2023-07-20T09:57:52;10.95;;;3.30;;
53056;SDS011;38940;50.096;4.012;2023-07-20T10:00:20;11.43;;;3.00;;
53056;SDS011;38940;50.096;4.012;2023-07-20T10:02:46;8.13;;;2.70;;
53056;SDS011;38940;50.096;4.012;2023-07-20T10:05:15;11.23;;;2.88;;
53056;SDS011;38940;50.096;4.012;2023-07-20T10:07:47;11.30;;;2.90;;
53056;SDS011;38940;50.096;4.012;2023-07-20T10:10:17;8.70;;;3.10;;
53056;SDS011;38940;50.096;4.012;2023-07-20T10:12:43;10.90;;;3.00;;
53056;SDS011;38940;50.096;4.012;2023-07-20T10:17:37;10.23;;;2.80;;
53056;SDS011;38940;50.096;4.012;2023-07-20T10:20:05;8.48;;;2.97;;
53056;SDS011;38940;50.096;4.012;2023-07-20T10:22:34;6.50;;;2.33;;
53056;SDS011;38940;50.096;4.012;2023-07-20T10:25:01;8.10;;;2.20;;
53056;SDS011;38940;50.096;4.012;2023-07-20T10:27:29;9.07;;;2.30;;
53056;SDS011;38940;50.096;4.012;2023-07-20T10:29:55;10.13;;;2.58;;
53056;SDS011;38940;50.096;4.012;2023-07-20T10:32:24;11.02;;;2.72;;
53056;SDS011;38940;50.096;4.012;2023-07-20T10:34:53;10.73;;;2.35;;
53056;SDS011;38940;50.096;4.012;2023-07-20T10:37:55;9.35;;;2.47;;
53056;SDS011;38940;50.096;4.012;2023-07-20T10:40:27;8.87;;;2.87;;
53056;SDS011;38940;50.096;4.012;2023-07-20T10:43:06;9.45;;;2.70;;
53056;SDS011;38940;50.096;4.012;2023-07-20T10:45:42;8.63;;;2.67;;
53056;SDS011;38940;50.096;4.012;2023-07-20T10:48:13;6.15;;;2.58;;
53056;SDS011;38940;50.096;4.012;2023-07-20T10:50:40;8.32;;;2.20;;
53056;SDS011;38940;50.096;4.012;2023-07-20T10:53:18;8.82;;;2.28;;
53056;SDS011;38940;50.096;4.012;2023-07-20T10:55:44;10.52;;;2.05;;
53056;SDS011;38940;50.096;4.012;2023-07-20T10:58:15;10.15;;;2.42;;
53056;SDS011;38940;50.096;4.012;2023-07-20T11:00:57;8.15;;;2.10;;
53056;SDS011;38940;50.096;4.012;2023-07-20T11:03:26;5.43;;;2.00;;
53056;SDS011;38940;50.096;4.012;2023-07-20T11:05:53;5.05;;;2.10;;
53056;SDS011;38940;50.096;4.012;2023-07-20T11:08:38;8.45;;;2.17;;
53056;SDS011;38940;50.096;4.012;2023-07-20T11:13:54;6.82;;;1.98;;
53056;SDS011;38940;50.096;4.012;2023-07-20T11:16:32;5.38;;;1.85;;
53056;SDS011;38940;50.096;4.012;2023-07-20T11:18:58;10.85;;;2.00;;
53056;SDS011;38940;50.096;4.012;2023-07-20T11:21:24;7.88;;;2.28;;
53056;SDS011;38940;50.096;4.012;2023-07-20T11:23:53;7.35;;;2.47;;
53056;SDS011;38940;50.096;4.012;2023-07-20T11:26:21;8.13;;;2.00;;
53056;SDS011;38940;50.096;4.012;2023-07-20T11:28:50;9.68;;;2.13;;
53056;SDS011;38940;50.096;4.012;2023-07-20T11:31:17;7.00;;;2.20;;
53056;SDS011;38940;50.096;4.012;2023-07-20T11:33:43;8.95;;;1.88;;
53056;SDS011;38940;50.096;4.012;2023-07-20T11:36:09;8.23;;;2.00;;
53056;SDS011;38940;50.096;4.012;2023-07-20T11:38:35;7.13;;;1.80;;
53056;SDS011;38940;50.096;4.012;2023-07-20T11:41:03;6.90;;;2.00;;
53056;SDS011;38940;50.096;4.012;2023-07-20T11:43:30;6.60;;;2.13;;
53056;SDS011;38940;50.096;4.012;2023-07-20T11:45:56;6.35;;;1.88;;
53056;SDS011;38940;50.096;4.012;2023-07-20T11:48:22;7.03;;;1.77;;
53056;SDS011;38940;50.096;4.012;2023-07-20T11:50:48;5.87;;;1.57;;
53056;SDS011;38940;50.096;4.012;2023-07-20T11:53:14;4.50;;;1.60;;
53056;SDS011;38940;50.096;4.012;2023-07-20T11:55:40;4.60;;;1.52;;
53056;SDS011;38940;50.096;4.012;2023-07-20T11:58:07;5.63;;;1.50;;
53056;SDS011;38940;50.096;4.012;2023-07-20T12:00:33;6.43;;;1.50;;
53056;SDS011;38940;50.096;4.012;2023-07-20T12:03:00;7.70;;;1.90;;
53056;SDS011;38940;50.096;4.012;2023-07-20T12:05:28;7.00;;;1.65;;
53056;SDS011;38940;50.096;4.012;2023-07-20T12:07:57;5.87;;;1.80;;
53056;SDS011;38940;50.096;4.012;2023-07-20T12:10:27;6.75;;;1.52;;
53056;SDS011;38940;50.096;4.012;2023-07-20T12:12:54;3.80;;;1.50;;
53056;SDS011;38940;50.096;4.012;2023-07-20T12:15:24;8.90;;;1.70;;
53056;SDS011;38940;50.096;4.012;2023-07-20T12:17:56;5.18;;;1.77;;
53056;SDS011;38940;50.096;4.012;2023-07-20T12:20:37;4.47;;;1.50;;
53056;SDS011;38940;50.096;4.012;2023-07-20T12:23:11;6.72;;;1.52;;
53056;SDS011;38940;50.096;4.012;2023-07-20T12:25:38;3.15;;;1.30;;
53056;SDS011;38940;50.096;4.012;2023-07-20T12:28:05;6.15;;;1.50;;
53056;SDS011;38940;50.096;4.012;2023-07-20T12:30:31;5.07;;;1.50;;
53056;SDS011;38940;50.096;4.012;2023-07-20T12:32:58;4.63;;;1.60;;
53056;SDS011;38940;50.096;4.012;2023-07-20T12:35:30;5.88;;;1.70;;
53056;SDS011;38940;50.096;4.012;2023-07-20T12:37:56;4.55;;;1.60;;
53056;SDS011;38940;50.096;4.012;2023-07-20T12:40:23;5.88;;;1.60;;
53056;SDS011;38940;50.096;4.012;2023-07-20T12:43:07;4.65;;;1.30;;
53056;SDS011;38940;50.096;4.012;2023-07-20T12:45:39;6.65;;;1.38;;
53056;SDS011;38940;50.096;4.012;2023-07-20T12:48:12;3.55;;;1.20;;
53056;SDS011;38940;50.096;4.012;2023-07-20T12:50:38;9.68;;;1.20;;
53056;SDS011;38940;50.096;4.012;2023-07-20T12:53:04;4.30;;;1.15;;
53056;SDS011;38940;50.096;4.012;2023-07-20T12:55:31;4.70;;;1.40;;
53056;SDS011;38940;50.096;4.012;2023-07-20T12:57:57;3.75;;;1.30;;
53056;SDS011;38940;50.096;4.012;2023-07-20T13:00:23;4.10;;;1.10;;
53056;SDS011;38940;50.096;4.012;2023-07-20T13:02:49;3.55;;;1.13;;
53056;SDS011;38940;50.096;4.012;2023-07-20T13:05:15;6.72;;;1.00;;
53056;SDS011;38940;50.096;4.012;2023-07-20T13:07:41;4.00;;;1.10;;
53056;SDS011;38940;50.096;4.012;2023-07-20T13:10:08;4.78;;;1.50;;
53056;SDS011;38940;50.096;4.012;2023-07-20T13:12:35;3.88;;;1.00;;
53056;SDS011;38940;50.096;4.012;2023-07-20T13:15:01;2.67;;;0.90;;
53056;SDS011;38940;50.096;4.012;2023-07-20T13:17:30;4.45;;;1.10;;
53056;SDS011;38940;50.096;4.012;2023-07-20T13:19:56;2.65;;;1.00;;
53056;SDS011;38940;50.096;4.012;2023-07-20T13:22:22;1.77;;;0.68;;
53056;SDS011;38940;50.096;4.012;2023-07-20T13:24:48;3.85;;;0.90;;
53056;SDS011;38940;50.096;4.012;2023-07-20T13:27:18;2.25;;;0.90;;
53056;SDS011;38940;50.096;4.012;2023-07-20T13:29:44;2.78;;;0.90;;
53056;SDS011;38940;50.096;4.012;2023-07-20T13:32:13;4.97;;;0.85;;
53056;SDS011;38940;50.096;4.012;2023-07-20T13:34:39;3.53;;;1.00;;
53056;SDS011;38940;50.096;4.012;2023-07-20T13:37:06;1.90;;;0.80;;
53056;SDS011;38940;50.096;4.012;2023-07-20T13:39:32;3.50;;;1.00;;
53056;SDS011;38940;50.096;4.012;2023-07-20T13:41:58;2.53;;;0.80;;
53056;SDS011;38940;50.096;4.012;2023-07-20T13:44:26;2.43;;;0.90;;
53056;SDS011;38940;50.096;4.012;2023-07-20T13:46:52;4.30;;;0.82;;
53056;SDS011;38940;50.096;4.012;2023-07-20T13:49:18;2.00;;;0.80;;
53056;SDS011;38940;50.096;4.012;2023-07-20T13:51:44;1.88;;;0.90;;
53056;SDS011;38940;50.096;4.012;2023-07-20T13:54:11;2.47;;;0.90;;
53056;SDS011;38940;50.096;4.012;2023-07-20T13:56:37;1.90;;;0.70;;
53056;SDS011;38940;50.096;4.012;2023-07-20T13:59:03;2.00;;;0.80;;
53056;SDS011;38940;50.096;4.012;2023-07-20T14:01:29;2.35;;;0.73;;
53056;SDS011;38940;50.096;4.012;2023-07-20T14:03:57;2.33;;;0.80;;
53056;SDS011;38940;50.096;4.012;2023-07-20T14:06:23;4.22;;;1.25;;
53056;SDS011;38940;50.096;4.012;2023-07-20T14:08:49;2.20;;;0.90;;
53056;SDS011;38940;50.096;4.012;2023-07-20T14:11:17;3.13;;;0.95;;
53056;SDS011;38940;50.096;4.012;2023-07-20T14:13:43;1.50;;;0.70;;
53056;SDS011;38940;50.096;4.012;2023-07-20T14:16:09;1.77;;;0.70;;
53056;SDS011;38940;50.096;4.012;2023-07-20T14:18:35;5.30;;;1.23;;
53056;SDS011;38940;50.096;4.012;2023-07-20T14:21:01;2.47;;;0.90;;
53056;SDS011;38940;50.096;4.012;2023-07-20T14:23:29;5.50;;;1.08;;
53056;SDS011;38940;50.096;4.012;2023-07-20T14:25:55;3.65;;;0.90;;
53056;SDS011;38940;50.096;4.012;2023-07-20T14:28:21;3.07;;;1.00;;
53056;SDS011;38940;50.096;4.012;2023-07-20T14:30:47;3.83;;;0.85;;
53056;SDS011;38940;50.096;4.012;2023-07-20T14:33:13;4.13;;;1.00;;
53056;SDS011;38940;50.096;4.012;2023-07-20T14:35:39;3.55;;;0.80;;
53056;SDS011;38940;50.096;4.012;2023-07-20T14:38:05;4.57;;;1.15;;
53056;SDS011;38940;50.096;4.012;2023-07-20T14:40:31;1.83;;;0.85;;
53056;SDS011;38940;50.096;4.012;2023-07-20T14:42:57;2.28;;;0.90;;
53056;SDS011;38940;50.096;4.012;2023-07-20T14:45:25;1.75;;;0.90;;
53056;SDS011;38940;50.096;4.012;2023-07-20T14:47:51;2.40;;;0.90;;
53056;SDS011;38940;50.096;4.012;2023-07-20T14:50:22;2.65;;;0.93;;
53056;SDS011;38940;50.096;4.012;2023-07-20T14:52:48;2.25;;;1.00;;
53056;SDS011;38940;50.096;4.012;2023-07-20T14:55:15;2.17;;;0.90;;